Airport View

Enter AWOS ICAO identifier for current METAR.

ex. KFNL

K1R7 120625Z AUTO 10SM CLR 02/M00 A3042 RMK AO2

12 Dec 2019 06:29

Frequency: 118.125

Phone: 601-833-3209

Other Area AWOS: KMCB - K0R0 - KJVW - KHKS

TAF KMCB 120533Z 1206/1306 03004KT P6SM SKC FM121500 10006KT P6SM SCT250 FM121700 11005KT P6SM BKN090 FM121800 11005KT P6SM OVC045 FM121900 12005KT P6SM OVC030 FM130000 12004KT P6SM OVC015